createdAt,value
2017-12-10T00:02:23.885Z,25.50
2017-12-10T00:04:55.129Z,25.50
2017-12-10T00:07:27.484Z,25.60
2017-12-10T00:09:57.964Z,25.60
2017-12-10T00:12:28.870Z,25.60
2017-12-10T00:15:00.962Z,25.70
2017-12-10T00:17:31.847Z,25.60
2017-12-10T00:20:02.298Z,25.70
2017-12-10T00:22:33.509Z,25.80
2017-12-10T00:25:04.365Z,25.80
2017-12-10T00:27:35.422Z,25.90
2017-12-10T00:30:07.755Z,26.00
2017-12-10T00:32:38.556Z,26.00
2017-12-10T00:35:09.334Z,26.10
2017-12-10T00:37:41.018Z,26.10
2017-12-10T00:40:12.614Z,26.20
2017-12-10T00:42:43.358Z,26.20
2017-12-10T00:45:13.831Z,26.30
2017-12-10T00:47:46.317Z,26.40
2017-12-10T00:50:17.556Z,26.50
2017-12-10T00:52:49.108Z,26.50
2017-12-10T00:55:21.498Z,26.60
2017-12-10T00:57:52.250Z,26.50
2017-12-10T01:00:22.739Z,26.60
2017-12-10T01:02:55.302Z,26.70
2017-12-10T01:05:25.781Z,26.80
2017-12-10T01:07:57.299Z,26.90
2017-12-10T01:10:28.564Z,26.90
2017-12-10T01:12:59.388Z,26.90
2017-12-10T01:15:30.944Z,27.00
2017-12-10T01:18:01.404Z,27.00
2017-12-10T01:20:31.892Z,27.00
2017-12-10T01:23:04.333Z,27.10
2017-12-10T01:25:35.197Z,27.10
2017-12-10T01:28:06.422Z,27.20
2017-12-10T01:30:36.908Z,27.20
2017-12-10T01:33:08.668Z,27.20
2017-12-10T01:35:39.148Z,27.30
2017-12-10T01:38:10.436Z,27.40
2017-12-10T01:40:40.934Z,27.40
2017-12-10T01:43:13.496Z,27.50
2017-12-10T01:45:44.311Z,27.40
2017-12-10T01:48:14.793Z,27.50
2017-12-10T01:50:46.121Z,27.50
2017-12-10T01:53:17.315Z,27.60
2017-12-10T01:55:48.053Z,27.60
2017-12-10T01:58:19.921Z,27.60
2017-12-10T02:00:50.685Z,27.70
2017-12-10T02:03:22.819Z,27.70
2017-12-10T02:05:53.329Z,27.70
2017-12-10T02:08:24.074Z,27.80
2017-12-10T02:10:54.567Z,27.80
2017-12-10T02:13:25.491Z,27.80
2017-12-10T02:15:56.736Z,27.90
2017-12-10T02:18:29.549Z,28.00
2017-12-10T02:21:00.377Z,27.90
2017-12-10T02:23:32.577Z,28.10
2017-12-10T02:26:05.288Z,28.10
2017-12-10T02:28:35.838Z,28.10
2017-12-10T02:31:07.113Z,28.20
2017-12-10T02:33:38.675Z,28.20
2017-12-10T02:36:10.246Z,28.30
2017-12-10T02:38:41.371Z,28.30
2017-12-10T02:41:12.213Z,28.30
2017-12-10T02:43:43.374Z,28.40
2017-12-10T02:46:15.088Z,28.40
2017-12-10T02:48:45.780Z,28.50
2017-12-10T02:51:16.755Z,28.50
2017-12-10T02:53:47.489Z,28.50
2017-12-10T02:56:18.644Z,28.50
2017-12-10T02:58:49.126Z,28.50
2017-12-10T03:01:19.660Z,28.60
2017-12-10T03:03:52.338Z,28.70
2017-12-10T03:06:24.118Z,28.70
2017-12-10T03:08:55.390Z,28.80
2017-12-10T03:11:26.527Z,28.80
2017-12-10T03:13:57.970Z,28.90
2017-12-10T03:16:29.602Z,28.90
2017-12-10T03:19:01.905Z,29.10
2017-12-10T03:21:34.760Z,29.10
2017-12-10T03:24:06.267Z,29.10
2017-12-10T03:26:37.145Z,29.10
2017-12-10T03:29:09.365Z,29.20
2017-12-10T03:31:41.281Z,29.20
2017-12-10T03:34:13.809Z,29.40
2017-12-10T03:36:45.688Z,29.40
2017-12-10T03:39:16.364Z,29.40
2017-12-10T03:41:47.374Z,29.40
2017-12-10T03:44:20.115Z,29.50
2017-12-10T03:46:52.823Z,29.50
2017-12-10T03:49:24.163Z,29.50
2017-12-10T03:51:55.507Z,29.60
2017-12-10T03:54:26.768Z,29.60
2017-12-10T03:56:59.384Z,29.60
2017-12-10T03:59:31.337Z,29.70
2017-12-10T04:02:03.383Z,29.70
2017-12-10T04:04:35.994Z,29.80
2017-12-10T04:07:07.344Z,29.80
2017-12-10T04:09:39.697Z,29.80
2017-12-10T04:12:11.597Z,29.90
2017-12-10T04:14:43.309Z,29.80
2017-12-10T04:17:15.501Z,30.00
2017-12-10T04:19:46.715Z,30.00
2017-12-10T04:22:18.854Z,30.10
2017-12-10T04:24:49.857Z,30.10
2017-12-10T04:27:21.295Z,30.10
2017-12-10T04:29:52.174Z,30.10
2017-12-10T04:32:27.453Z,30.20
2017-12-10T04:35:03.409Z,30.30
2017-12-10T04:37:35.742Z,30.30
2017-12-10T04:40:06.966Z,29.30
2017-12-10T04:42:39.485Z,30.40
2017-12-10T04:45:10.753Z,30.40
2017-12-10T04:47:42.703Z,30.40
2017-12-10T04:50:16.118Z,30.40
2017-12-10T04:52:50.789Z,30.40
2017-12-10T04:55:25.621Z,30.40
2017-12-10T04:57:57.769Z,30.40
2017-12-10T05:00:28.502Z,30.50
2017-12-10T05:02:59.238Z,30.50
2017-12-10T05:05:32.662Z,30.50
2017-12-10T05:08:03.134Z,30.60
2017-12-10T05:10:33.922Z,30.60
2017-12-10T05:13:05.002Z,30.60
2017-12-10T05:15:36.872Z,30.80
2017-12-10T05:18:07.366Z,30.80
2017-12-10T05:20:38.894Z,30.80
2017-12-10T05:23:10.550Z,30.80
2017-12-10T05:25:41.005Z,30.80
2017-12-10T05:28:11.590Z,30.90
2017-12-10T05:30:42.693Z,30.90
2017-12-10T05:33:16.269Z,31.00
2017-12-10T05:35:47.599Z,30.90
2017-12-10T05:38:18.373Z,31.00
2017-12-10T05:40:50.870Z,31.10
2017-12-10T05:43:22.930Z,31.10
2017-12-10T05:45:53.444Z,31.10
2017-12-10T05:48:25.316Z,31.20
2017-12-10T05:50:57.307Z,31.20
2017-12-10T05:53:28.586Z,31.20
2017-12-10T05:55:59.073Z,31.20
2017-12-10T05:58:29.510Z,31.10
2017-12-10T06:01:00.915Z,31.10
2017-12-10T06:03:32.677Z,31.10
2017-12-10T06:06:03.166Z,31.10
2017-12-10T06:08:33.924Z,31.10
2017-12-10T06:11:04.408Z,31.10
2017-12-10T06:13:34.895Z,31.10
2017-12-10T06:16:06.352Z,31.10
2017-12-10T06:18:38.514Z,31.10
2017-12-10T06:21:10.106Z,31.10
2017-12-10T06:23:40.576Z,31.10
2017-12-10T06:26:11.066Z,31.10
2017-12-10T06:28:42.488Z,31.20
2017-12-10T06:31:12.949Z,31.20
2017-12-10T06:33:43.999Z,31.30
2017-12-10T06:36:14.461Z,31.40
2017-12-10T06:38:45.716Z,31.40
2017-12-10T06:41:16.969Z,31.50
2017-12-10T06:43:47.775Z,31.50
2017-12-10T06:46:19.478Z,31.50
2017-12-10T06:48:49.954Z,31.50
2017-12-10T06:51:20.762Z,31.50
2017-12-10T06:53:52.538Z,31.50
2017-12-10T06:56:23.332Z,31.40
2017-12-10T06:58:53.808Z,31.30
2017-12-10T07:01:24.270Z,31.20
2017-12-10T07:03:57.941Z,31.00
2017-12-10T07:06:28.397Z,31.00
2017-12-10T07:09:02.483Z,30.90
2017-12-10T07:11:34.294Z,30.90
2017-12-10T07:14:05.651Z,30.90
2017-12-10T07:16:36.929Z,30.90
2017-12-10T07:19:07.729Z,30.80
2017-12-10T07:21:38.734Z,30.80
2017-12-10T07:24:11.598Z,30.80
2017-12-10T07:26:42.370Z,30.80
2017-12-10T07:29:12.819Z,30.80
2017-12-10T07:31:43.594Z,30.70
2017-12-10T07:34:14.673Z,30.60
2017-12-10T07:36:46.125Z,30.60
2017-12-10T07:39:16.921Z,30.50
2017-12-10T07:41:47.372Z,30.40
2017-12-10T07:44:17.852Z,30.30
2017-12-10T07:46:48.660Z,30.20
2017-12-10T07:49:19.133Z,30.10
2017-12-10T07:51:50.245Z,30.00
2017-12-10T07:54:21.543Z,30.00
2017-12-10T07:56:52.044Z,29.90
2017-12-10T07:59:23.862Z,29.90
2017-12-10T08:01:54.359Z,29.80
2017-12-10T08:04:25.870Z,29.70
2017-12-10T08:06:57.332Z,29.70
2017-12-10T08:09:27.828Z,29.70
2017-12-10T08:11:58.317Z,29.60
2017-12-10T08:14:30.452Z,29.60
2017-12-10T08:17:01.224Z,29.50
2017-12-10T08:19:32.476Z,29.50
2017-12-10T08:22:04.535Z,29.50
2017-12-10T08:24:35.775Z,29.50
2017-12-10T08:27:07.960Z,29.50
2017-12-10T08:29:39.501Z,29.50
2017-12-10T08:32:10.730Z,29.40
2017-12-10T08:34:41.581Z,29.40
2017-12-10T08:37:13.647Z,29.40
2017-12-10T08:39:44.874Z,29.40
2017-12-10T08:42:15.331Z,29.40
2017-12-10T08:44:47.254Z,29.30
2017-12-10T08:47:17.758Z,29.30
2017-12-10T08:49:48.789Z,29.30
2017-12-10T08:52:20.167Z,29.30
2017-12-10T08:54:52.393Z,29.30
2017-12-10T08:57:23.752Z,29.30
2017-12-10T08:59:54.287Z,29.30
2017-12-10T09:02:25.049Z,29.30
2017-12-10T09:04:56.756Z,29.30
2017-12-10T09:07:27.524Z,29.30
2017-12-10T09:09:59.315Z,29.30
2017-12-10T09:12:29.768Z,29.40
2017-12-10T09:15:01.017Z,29.40
2017-12-10T09:17:31.526Z,29.30
2017-12-10T09:20:04.859Z,29.30
2017-12-10T09:22:36.518Z,29.40
2017-12-10T09:25:08.903Z,29.40
2017-12-10T09:27:39.792Z,29.40
2017-12-10T09:30:11.368Z,29.40
2017-12-10T09:32:41.884Z,29.40
2017-12-10T09:35:13.148Z,29.40
2017-12-10T09:37:43.929Z,29.40
2017-12-10T09:40:14.532Z,29.40
2017-12-10T09:42:45.988Z,29.40
2017-12-10T09:45:16.446Z,29.40
2017-12-10T09:47:47.236Z,29.30
2017-12-10T09:50:19.010Z,29.40
2017-12-10T09:52:50.147Z,29.40
2017-12-10T09:55:20.616Z,29.40
2017-12-10T09:57:52.934Z,29.40
2017-12-10T10:00:23.410Z,29.40
2017-12-10T10:02:53.902Z,29.40
2017-12-10T10:05:24.390Z,29.40
2017-12-10T10:07:55.633Z,29.40
2017-12-10T10:10:27.368Z,29.40
2017-12-10T10:12:58.681Z,29.40
2017-12-10T10:15:29.451Z,29.40
2017-12-10T10:17:59.913Z,29.30
2017-12-10T10:20:30.410Z,29.30
2017-12-10T10:23:02.800Z,29.30
2017-12-10T10:25:34.558Z,29.30
2017-12-10T10:28:06.391Z,29.20
2017-12-10T10:30:36.875Z,29.20
2017-12-10T10:33:07.350Z,29.20
2017-12-10T10:35:37.802Z,29.20
2017-12-10T10:38:09.352Z,29.20
2017-12-10T10:40:41.013Z,29.10
2017-12-10T10:43:12.449Z,29.10
2017-12-10T10:45:43.706Z,29.10
2017-12-10T10:48:14.941Z,29.00
2017-12-10T10:50:46.172Z,29.00
2017-12-10T10:53:16.885Z,29.00
2017-12-10T10:55:47.661Z,29.00
2017-12-10T10:58:18.903Z,28.90
2017-12-10T11:00:50.497Z,28.80
2017-12-10T11:03:20.950Z,28.80
2017-12-10T11:05:51.738Z,28.70
2017-12-10T11:08:22.179Z,28.70
2017-12-10T11:10:52.961Z,28.60
2017-12-10T11:13:23.414Z,28.60
2017-12-10T11:15:54.626Z,28.50
2017-12-10T11:18:25.391Z,28.50
2017-12-10T11:20:56.659Z,28.50
2017-12-10T11:23:27.116Z,28.50
2017-12-10T11:25:57.881Z,28.40
2017-12-10T11:28:28.591Z,28.40
2017-12-10T11:31:00.030Z,28.40
2017-12-10T11:33:30.514Z,28.40
2017-12-10T11:36:01.737Z,28.40
2017-12-10T11:38:32.209Z,28.40
2017-12-10T11:41:02.930Z,28.40
2017-12-10T11:43:36.585Z,28.40
2017-12-10T11:46:07.039Z,28.40
2017-12-10T11:48:38.269Z,28.30
2017-12-10T11:51:10.029Z,28.30
2017-12-10T11:53:41.138Z,28.30
2017-12-10T11:56:11.642Z,28.30
2017-12-10T11:58:42.505Z,28.30
2017-12-10T12:01:13.316Z,28.20
2017-12-10T12:03:43.768Z,28.10
2017-12-10T12:06:15.881Z,28.10
2017-12-10T12:08:47.116Z,28.10
2017-12-10T12:11:17.870Z,28.00
2017-12-10T12:13:49.120Z,28.10
2017-12-10T12:16:19.918Z,28.00
2017-12-10T12:18:50.402Z,28.10
2017-12-10T12:21:21.159Z,28.10
2017-12-10T12:23:51.862Z,28.20
2017-12-10T12:26:22.342Z,28.20
2017-12-10T12:28:52.912Z,28.20
2017-12-10T12:31:24.145Z,28.20
2017-12-10T12:33:55.391Z,28.20
2017-12-10T12:36:26.638Z,28.20
2017-12-10T12:38:57.891Z,28.20
2017-12-10T12:41:29.213Z,28.20
2017-12-10T12:43:59.682Z,28.20
2017-12-10T12:46:30.477Z,28.20
2017-12-10T12:49:00.945Z,28.20
2017-12-10T12:51:31.761Z,28.20
2017-12-10T12:54:03.329Z,28.20
2017-12-10T12:56:33.817Z,28.20
2017-12-10T12:59:04.525Z,28.20
2017-12-10T13:01:35.319Z,28.10
2017-12-10T13:04:05.772Z,28.10
2017-12-10T13:06:36.234Z,28.00
2017-12-10T13:09:06.920Z,28.00
2017-12-10T13:11:37.602Z,28.00
2017-12-10T13:14:08.031Z,27.90
2017-12-10T13:16:38.489Z,28.00
2017-12-10T13:19:09.698Z,27.90
2017-12-10T13:21:40.194Z,27.90
2017-12-10T13:24:10.666Z,27.90
2017-12-10T13:26:41.122Z,28.00
2017-12-10T13:29:13.009Z,28.00
2017-12-10T13:31:43.467Z,28.00
2017-12-10T13:34:13.930Z,28.10
2017-12-10T13:36:45.252Z,28.10
2017-12-10T13:39:15.709Z,28.10
2017-12-10T13:41:47.044Z,28.10
2017-12-10T13:44:18.289Z,28.10
2017-12-10T13:46:49.506Z,28.10
2017-12-10T13:49:19.966Z,28.10
2017-12-10T13:51:51.223Z,28.10
2017-12-10T13:54:22.428Z,28.00
2017-12-10T13:56:52.953Z,28.00
2017-12-10T13:59:23.726Z,28.00
2017-12-10T14:01:54.978Z,28.00
2017-12-10T14:04:26.250Z,27.90
2017-12-10T14:06:56.745Z,27.90
2017-12-10T14:09:27.991Z,27.80
2017-12-10T14:11:59.714Z,27.80
2017-12-10T14:14:30.164Z,27.80
2017-12-10T14:17:01.626Z,27.70
2017-12-10T14:19:32.900Z,27.70
2017-12-10T14:22:03.401Z,27.70
2017-12-10T14:24:34.617Z,27.60
2017-12-10T14:27:05.062Z,27.60
2017-12-10T14:29:47.556Z,27.50
2017-12-10T14:32:18.852Z,27.50
2017-12-10T14:34:49.398Z,27.50
2017-12-10T14:37:19.858Z,27.40
2017-12-10T14:39:50.343Z,27.40
2017-12-10T14:42:21.134Z,27.30
2017-12-10T14:44:52.413Z,27.30
2017-12-10T14:47:22.925Z,27.20
2017-12-10T14:49:54.237Z,27.20
2017-12-10T14:52:25.655Z,27.20
2017-12-10T14:54:56.128Z,27.20
2017-12-10T14:57:26.934Z,27.20
2017-12-10T14:59:58.034Z,27.20
2017-12-10T15:02:28.529Z,27.30
2017-12-10T15:04:59.087Z,27.30
2017-12-10T15:07:30.355Z,27.30
2017-12-10T15:10:00.893Z,27.30
2017-12-10T15:12:31.783Z,27.30
2017-12-10T15:15:03.030Z,27.40
2017-12-10T15:17:34.554Z,27.40
2017-12-10T15:20:05.061Z,27.40
2017-12-10T15:22:35.536Z,27.40
2017-12-10T15:25:06.834Z,27.40
2017-12-10T15:27:37.371Z,27.40
2017-12-10T15:30:08.035Z,27.40
2017-12-10T15:32:38.578Z,27.40
2017-12-10T15:35:10.107Z,27.30
2017-12-10T15:37:40.606Z,27.30
2017-12-10T15:40:11.057Z,27.30
2017-12-10T15:42:41.517Z,27.30
2017-12-10T15:45:12.721Z,27.30
2017-12-10T15:47:43.495Z,27.20
2017-12-10T15:50:14.741Z,27.10
2017-12-10T15:52:45.966Z,27.10
2017-12-10T15:55:16.417Z,27.00
2017-12-10T15:57:47.669Z,27.00
2017-12-10T16:00:19.440Z,27.00
2017-12-10T16:02:49.906Z,27.00
2017-12-10T16:05:20.742Z,26.90
2017-12-10T16:07:51.352Z,26.90
2017-12-10T16:10:21.805Z,26.80
2017-12-10T16:12:52.552Z,26.80
2017-12-10T16:15:23.077Z,26.80
2017-12-10T16:17:53.668Z,26.80
2017-12-10T16:20:24.137Z,26.80
2017-12-10T16:22:54.591Z,26.80
2017-12-10T16:25:25.797Z,26.80
2017-12-10T16:27:56.289Z,26.80
2017-12-10T16:30:26.753Z,26.80
2017-12-10T16:32:57.226Z,26.80
2017-12-10T16:35:28.988Z,26.80
2017-12-10T16:38:00.212Z,26.80
2017-12-10T16:40:31.430Z,26.80
2017-12-10T16:43:01.907Z,26.80
2017-12-10T16:45:32.390Z,26.80
2017-12-10T16:48:03.013Z,26.80
2017-12-10T16:50:33.510Z,26.80
2017-12-10T16:53:04.290Z,26.80
2017-12-10T16:55:34.718Z,26.80
2017-12-10T16:58:05.202Z,26.80
2017-12-10T17:00:36.011Z,26.70
2017-12-10T17:03:07.270Z,26.70
2017-12-10T17:05:38.038Z,26.70
2017-12-10T17:08:08.498Z,26.60
2017-12-10T17:10:38.976Z,26.60
2017-12-10T17:13:09.448Z,26.50
2017-12-10T17:15:39.991Z,26.50
2017-12-10T17:18:11.609Z,26.50
2017-12-10T17:20:42.087Z,26.50
2017-12-10T17:23:12.631Z,26.50
2017-12-10T17:25:43.090Z,26.50
2017-12-10T17:28:14.391Z,26.60
2017-12-10T17:30:45.586Z,26.60
2017-12-10T17:33:16.038Z,26.60
2017-12-10T17:35:46.622Z,26.60
2017-12-10T17:38:17.108Z,26.50
2017-12-10T17:40:48.356Z,26.50
2017-12-10T17:43:19.627Z,26.50
2017-12-10T17:45:50.074Z,26.40
2017-12-10T17:48:20.905Z,26.40
2017-12-10T17:50:51.338Z,26.40
2017-12-10T17:53:22.065Z,26.40
2017-12-10T17:55:52.624Z,26.40
2017-12-10T17:58:23.085Z,26.30
2017-12-10T18:00:54.331Z,26.20
2017-12-10T18:03:25.568Z,26.20
2017-12-10T18:05:57.170Z,26.10
2017-12-10T18:08:27.630Z,26.10
2017-12-10T18:10:58.077Z,26.10
2017-12-10T18:13:28.535Z,26.10
2017-12-10T18:15:59.010Z,26.10
2017-12-10T18:18:29.997Z,26.20
2017-12-10T18:21:00.449Z,26.10
2017-12-10T18:23:31.098Z,26.10
2017-12-10T18:26:01.571Z,26.10
2017-12-10T18:28:32.816Z,26.10
2017-12-10T18:31:04.038Z,26.10
2017-12-10T18:33:34.484Z,26.10
2017-12-10T18:36:06.002Z,26.00
2017-12-10T18:38:36.455Z,26.00
2017-12-10T18:41:07.700Z,26.00
2017-12-10T18:43:38.973Z,26.00
2017-12-10T18:46:09.857Z,26.00
2017-12-10T18:48:40.662Z,26.00
2017-12-10T18:51:11.127Z,26.10
2017-12-10T18:53:41.886Z,26.00
2017-12-10T18:56:13.094Z,25.90
2017-12-10T18:58:43.560Z,25.90
2017-12-10T19:01:14.780Z,25.90
2017-12-10T19:03:45.261Z,25.90
2017-12-10T19:06:16.158Z,25.90
2017-12-10T19:08:47.460Z,25.90
2017-12-10T19:11:17.920Z,25.90
2017-12-10T19:13:48.414Z,25.90
2017-12-10T19:16:18.910Z,25.90
2017-12-10T19:18:50.518Z,25.80
2017-12-10T19:21:20.997Z,25.80
2017-12-10T19:23:51.905Z,25.80
2017-12-10T19:26:22.353Z,25.70
2017-12-10T19:28:53.596Z,25.70
2017-12-10T19:31:24.793Z,25.70
2017-12-10T19:33:55.241Z,25.70
2017-12-10T19:36:26.113Z,25.70
2017-12-10T19:38:57.354Z,25.70
2017-12-10T19:41:28.587Z,25.70
2017-12-10T19:43:59.850Z,25.70
2017-12-10T19:46:30.348Z,25.70
2017-12-10T19:49:00.789Z,25.70
2017-12-10T19:51:32.005Z,25.70
2017-12-10T19:54:02.738Z,25.70
2017-12-10T19:56:33.200Z,25.70
2017-12-10T19:59:04.426Z,25.70
2017-12-10T20:01:34.850Z,25.70
2017-12-10T20:04:05.313Z,25.70
2017-12-10T20:06:37.028Z,25.60
2017-12-10T20:09:07.516Z,25.50
2017-12-10T20:11:38.288Z,25.50
2017-12-10T20:14:08.777Z,25.50
2017-12-10T20:16:39.214Z,25.40
2017-12-10T20:19:09.678Z,25.40
2017-12-10T20:21:40.136Z,25.40
2017-12-10T20:24:11.646Z,25.30
2017-12-10T20:26:42.078Z,25.40
2017-12-10T20:29:12.535Z,25.40
2017-12-10T20:31:43.748Z,25.40
2017-12-10T20:34:14.237Z,25.40
2017-12-10T20:36:45.041Z,25.40
2017-12-10T20:39:16.292Z,25.40
2017-12-10T20:41:48.059Z,25.40
2017-12-10T20:44:19.290Z,25.40
2017-12-10T20:46:50.544Z,25.40
2017-12-10T20:49:21.844Z,25.40
2017-12-10T20:51:52.311Z,25.40
2017-12-10T20:54:23.787Z,25.50
2017-12-10T20:56:54.296Z,25.40
2017-12-10T20:59:25.538Z,25.40
2017-12-10T21:01:56.730Z,25.40
2017-12-10T21:04:27.228Z,25.40
2017-12-10T21:06:57.854Z,25.40
2017-12-10T21:09:29.067Z,25.40
2017-12-10T21:11:59.889Z,25.40
2017-12-10T21:14:30.352Z,25.40
2017-12-10T21:17:01.579Z,25.40
2017-12-10T21:19:32.076Z,25.40
2017-12-10T21:22:02.577Z,25.40
2017-12-10T21:24:33.463Z,25.40
2017-12-10T21:27:03.956Z,25.40
2017-12-10T21:29:34.465Z,25.30
2017-12-10T21:32:04.940Z,25.30
2017-12-10T21:34:35.412Z,25.30
2017-12-10T21:37:06.094Z,25.30
2017-12-10T21:39:36.577Z,25.30
2017-12-10T21:42:07.254Z,25.30
2017-12-10T21:44:37.731Z,25.40
2017-12-10T21:47:08.965Z,25.40
2017-12-10T21:49:40.194Z,25.40
2017-12-10T21:52:10.632Z,25.40
2017-12-10T21:54:42.177Z,25.40
2017-12-10T21:57:12.638Z,25.40
2017-12-10T21:59:43.173Z,25.50
2017-12-10T22:02:13.644Z,25.50
2017-12-10T22:04:44.143Z,25.50
2017-12-10T22:07:14.604Z,25.40
2017-12-10T22:09:45.217Z,25.50
2017-12-10T22:12:15.978Z,25.40
2017-12-10T22:14:46.464Z,25.50
2017-12-10T22:17:16.935Z,25.40
2017-12-10T22:19:47.385Z,25.40
2017-12-10T22:22:27.564Z,25.30
2017-12-10T22:24:58.784Z,25.30
2017-12-10T22:27:29.990Z,25.30
2017-12-10T22:30:00.840Z,25.30
2017-12-10T22:32:31.266Z,25.30
2017-12-10T22:35:01.741Z,25.30
2017-12-10T22:37:32.218Z,25.30
2017-12-10T22:40:02.683Z,25.30
2017-12-10T22:42:34.153Z,25.20
2017-12-10T22:45:04.641Z,25.20
2017-12-10T22:47:35.048Z,25.20
2017-12-10T22:50:05.510Z,25.20
2017-12-10T22:52:36.733Z,25.10
2017-12-10T22:55:07.204Z,25.10
2017-12-10T22:57:37.660Z,25.00
2017-12-10T23:00:08.461Z,25.00
2017-12-10T23:02:38.939Z,24.90
2017-12-10T23:05:09.432Z,24.90
2017-12-10T23:07:39.886Z,24.80
2017-12-10T23:10:10.353Z,24.80
2017-12-10T23:12:46.750Z,24.90
2017-12-10T23:15:19.403Z,24.80
2017-12-10T23:17:50.624Z,25.00
2017-12-10T23:20:28.820Z,24.90
2017-12-10T23:22:59.272Z,25.00
2017-12-10T23:25:31.003Z,25.00
2017-12-10T23:28:01.486Z,25.00
2017-12-10T23:30:32.178Z,25.00
2017-12-10T23:33:02.660Z,25.10
2017-12-10T23:35:33.091Z,25.10
2017-12-10T23:38:03.572Z,25.20
2017-12-10T23:40:34.823Z,25.20
2017-12-10T23:43:06.024Z,25.20
2017-12-10T23:45:36.478Z,25.20
2017-12-10T23:48:07.269Z,25.20
2017-12-10T23:50:37.765Z,25.20
2017-12-10T23:53:08.993Z,25.30
2017-12-10T23:55:39.798Z,25.30
2017-12-10T23:58:10.247Z,25.40
